Time;durP1;ratioP1;P1;durP2;ratioP2;P2;SDS_P1;SDS_P2;PMS_P1;PMS_P2;Temp;Humidity;BMP_temperature;BMP_pressure;BME280_temperature;BME280_humidity;BME280_pressure;Samples;Min_cycle;Max_cycle;Signal;HPM_P1;HPM_P2
2023/05/30 00:01:51;;;;;;;16.58;3.85;;;11.30;99.90;;;;;;5051620;28;20076;-76
2023/05/30 00:04:17;;;;;;;14.35;3.65;;;11.30;99.90;;;;;;5026682;28;20150;-76
2023/05/30 00:06:43;;;;;;;13.98;3.60;;;11.30;99.90;;;;;;5036390;28;20047;-76
2023/05/30 00:09:09;;;;;;;11.00;3.40;;;11.20;99.90;;;;;;5019503;28;20107;-76
2023/05/30 00:11:35;;;;;;;14.30;3.60;;;11.20;99.90;;;;;;5050755;28;20514;-76
2023/05/30 00:14:01;;;;;;;13.10;3.65;;;11.20;99.90;;;;;;5023811;28;20045;-76
2023/05/30 00:16:28;;;;;;;13.38;3.60;;;11.20;99.90;;;;;;5026096;28;20062;-76
2023/05/30 00:18:53;;;;;;;11.73;3.35;;;11.20;99.90;;;;;;5042192;28;20045;-76
2023/05/30 00:21:20;;;;;;;14.07;3.75;;;11.30;99.90;;;;;;5036329;28;20560;-76
2023/05/30 00:23:47;;;;;;;12.65;3.92;;;11.20;99.90;;;;;;5034944;28;20510;-77
2023/05/30 00:26:13;;;;;;;13.27;3.75;;;11.20;99.90;;;;;;5056584;28;20116;-76
2023/05/30 00:28:39;;;;;;;15.52;3.70;;;11.20;99.90;;;;;;5040314;28;20567;-77
2023/05/30 00:31:05;;;;;;;14.90;3.67;;;11.20;99.90;;;;;;5043343;28;20049;-77
2023/05/30 00:33:32;;;;;;;15.45;3.83;;;11.70;99.90;;;;;;5041043;28;20520;-76
2023/05/30 00:35:57;;;;;;;14.68;4.07;;;11.30;99.90;;;;;;5061690;28;20123;-77
2023/05/30 00:38:23;;;;;;;12.80;3.50;;;11.30;99.90;;;;;;5062716;28;20507;-76
2023/05/30 00:40:49;;;;;;;15.27;3.88;;;11.30;99.90;;;;;;5061167;28;20040;-76
2023/05/30 00:43:18;;;;;;;13.13;3.42;;;11.20;99.90;;;;;;5038841;28;20046;-76
2023/05/30 00:45:44;;;;;;;14.18;3.58;;;11.20;99.90;;;;;;5048335;28;20379;-76
2023/05/30 00:48:10;;;;;;;14.07;3.40;;;11.20;99.90;;;;;;5067081;28;20059;-77
2023/05/30 00:50:36;;;;;;;12.18;3.22;;;11.20;99.90;;;;;;5043882;28;20044;-76
2023/05/30 00:53:04;;;;;;;14.23;3.85;;;11.20;99.90;;;;;;5056509;28;20044;-76
2023/05/30 00:55:30;;;;;;;12.02;3.60;;;11.20;99.90;;;;;;5063392;28;20063;-76
2023/05/30 00:57:56;;;;;;;15.38;3.55;;;11.20;99.90;;;;;;5062726;28;20619;-77
2023/05/30 01:00:24;;;;;;;16.48;3.63;;;11.20;99.90;;;;;;5050143;28;20033;-76
2023/05/30 01:02:51;;;;;;;14.63;3.25;;;11.20;99.90;;;;;;5056883;28;20040;-76
2023/05/30 01:05:17;;;;;;;14.48;3.40;;;11.20;99.90;;;;;;5049556;28;20044;-76
2023/05/30 01:07:44;;;;;;;14.75;3.60;;;11.10;99.90;;;;;;5049120;28;20040;-76
2023/05/30 01:10:15;;;;;;;14.25;3.40;;;11.10;99.90;;;;;;5033387;28;20029;-76
2023/05/30 01:13:12;;;;;;;13.93;3.70;;;11.10;99.90;;;;;;5051994;28;20048;-76
2023/05/30 01:15:44;;;;;;;15.38;3.80;;;11.10;99.90;;;;;;5052991;28;20032;-76
2023/05/30 01:18:38;;;;;;;14.95;3.85;;;11.10;99.90;;;;;;5042271;28;20068;-76
2023/05/30 01:21:10;;;;;;;13.32;4.15;;;11.10;99.90;;;;;;5044812;28;20052;-76
2023/05/30 01:24:06;;;;;;;13.98;3.75;;;11.10;99.90;;;;;;5060005;28;20059;-77
2023/05/30 01:27:04;;;;;;;13.20;3.63;;;11.10;99.90;;;;;;5052239;28;20044;-77
2023/05/30 01:29:31;;;;;;;12.60;3.83;;;11.10;99.90;;;;;;5050289;28;20132;-76
2023/05/30 01:31:58;;;;;;;15.93;3.90;;;11.10;99.90;;;;;;5040780;28;20040;-77
2023/05/30 01:34:24;;;;;;;13.38;3.83;;;11.00;99.90;;;;;;5059024;28;20045;-76
2023/05/30 01:36:50;;;;;;;11.88;3.60;;;11.00;99.90;;;;;;5049731;28;20511;-77
2023/05/30 01:39:16;;;;;;;13.00;3.55;;;11.00;99.90;;;;;;5056235;28;20036;-76
2023/05/30 01:41:47;;;;;;;13.25;3.35;;;11.00;99.90;;;;;;5053952;28;20053;-76
2023/05/30 01:44:33;;;;;;;11.60;3.60;;;11.00;99.90;;;;;;5059151;28;20040;-76
2023/05/30 01:47:14;;;;;;;13.55;4.20;;;11.00;99.90;;;;;;5044852;28;20532;-76
2023/05/30 01:49:54;;;;;;;13.63;3.13;;;11.00;99.90;;;;;;5041616;28;20047;-76
2023/05/30 01:52:23;;;;;;;15.48;3.80;;;11.00;99.90;;;;;;5051187;28;20237;-77
2023/05/30 01:54:54;;;;;;;14.32;3.63;;;11.10;99.90;;;;;;5054959;28;20065;-76
2023/05/30 01:57:20;;;;;;;12.55;3.65;;;11.10;99.90;;;;;;5042832;28;20068;-76
2023/05/30 01:59:47;;;;;;;12.27;3.88;;;11.10;99.90;;;;;;5049165;28;20498;-76
2023/05/30 02:02:13;;;;;;;14.73;3.35;;;11.10;99.90;;;;;;5050868;28;20087;-76
2023/05/30 02:04:39;;;;;;;11.23;3.78;;;11.00;99.90;;;;;;5068083;28;20328;-76
2023/05/30 02:07:05;;;;;;;14.70;3.60;;;11.10;99.90;;;;;;5042422;28;20036;-76
2023/05/30 02:09:31;;;;;;;15.82;3.88;;;11.10;99.90;;;;;;5054405;28;20041;-76
2023/05/30 02:11:57;;;;;;;17.88;4.35;;;11.10;99.90;;;;;;5052252;28;20090;-76
2023/05/30 02:14:22;;;;;;;15.20;3.75;;;11.10;99.90;;;;;;5049203;28;20048;-76
2023/05/30 02:16:48;;;;;;;12.15;3.53;;;11.10;99.90;;;;;;5067802;28;20506;-76
2023/05/30 02:19:14;;;;;;;14.55;3.75;;;11.10;99.90;;;;;;5061387;28;20071;-76
2023/05/30 02:21:41;;;;;;;13.35;3.78;;;11.10;99.90;;;;;;5038387;28;20072;-76
2023/05/30 02:24:07;;;;;;;15.07;3.60;;;11.10;99.90;;;;;;5017697;28;20044;-76
2023/05/30 02:26:36;;;;;;;13.38;3.45;;;11.10;99.90;;;;;;5034701;28;20043;-77
2023/05/30 02:29:02;;;;;;;17.45;4.32;;;11.10;99.90;;;;;;5050830;28;20053;-77
2023/05/30 02:31:28;;;;;;;16.40;4.00;;;11.10;99.90;;;;;;5036499;28;20072;-76
2023/05/30 02:33:54;;;;;;;14.48;3.80;;;11.10;99.90;;;;;;5033398;28;20029;-76
2023/05/30 02:36:20;;;;;;;14.23;4.47;;;11.10;99.90;;;;;;5047186;28;20040;-76
2023/05/30 02:38:46;;;;;;;12.93;4.32;;;11.10;99.90;;;;;;5034314;28;20405;-76
2023/05/30 02:41:12;;;;;;;15.73;4.05;;;11.10;99.90;;;;;;5039421;28;20107;-76
2023/05/30 02:43:40;;;;;;;15.48;4.10;;;11.10;99.90;;;;;;5032695;28;20052;-76
2023/05/30 02:46:06;;;;;;;14.52;3.97;;;11.10;99.90;;;;;;5040706;28;20045;-76
2023/05/30 02:48:31;;;;;;;16.40;4.63;;;11.10;99.90;;;;;;5030068;28;20037;-76
2023/05/30 02:50:57;;;;;;;14.40;4.28;;;11.10;99.90;;;;;;5067929;28;20032;-77
2023/05/30 02:53:23;;;;;;;20.17;5.13;;;11.00;99.90;;;;;;5038096;28;20549;-77
2023/05/30 02:55:48;;;;;;;16.77;4.85;;;11.00;99.90;;;;;;5031287;28;20414;-76
2023/05/30 02:58:14;;;;;;;16.08;4.22;;;11.00;99.90;;;;;;5041802;28;20113;-76
2023/05/30 03:00:41;;;;;;;18.33;4.53;;;11.00;99.90;;;;;;5063199;28;20041;-76
2023/05/30 03:03:09;;;;;;;24.00;4.82;;;11.00;99.90;;;;;;5048527;28;20051;-76
2023/05/30 03:05:35;;;;;;;15.57;4.10;;;11.00;99.90;;;;;;5065153;28;20041;-76
2023/05/30 03:08:05;;;;;;;15.07;4.00;;;11.00;99.90;;;;;;5066633;28;20044;-76
2023/05/30 03:10:30;;;;;;;18.48;4.10;;;11.00;99.90;;;;;;5046330;28;20462;-76
2023/05/30 03:12:56;;;;;;;15.07;4.00;;;11.00;99.90;;;;;;5032968;28;20127;-76
2023/05/30 03:15:22;;;;;;;17.20;4.18;;;11.00;99.90;;;;;;5032767;28;20513;-76
2023/05/30 03:17:48;;;;;;;14.73;4.15;;;11.00;99.90;;;;;;5049348;28;20106;-76
2023/05/30 03:20:14;;;;;;;13.50;4.25;;;11.00;99.90;;;;;;5044956;28;20041;-76
2023/05/30 03:22:41;;;;;;;11.48;3.80;;;11.00;99.90;;;;;;5065803;28;20101;-76
2023/05/30 03:25:08;;;;;;;16.13;4.10;;;11.00;99.90;;;;;;5059833;28;20073;-76
2023/05/30 03:27:34;;;;;;;16.38;3.90;;;11.00;99.90;;;;;;5049242;28;20099;-77
2023/05/30 03:30:04;;;;;;;15.55;3.88;;;11.00;99.90;;;;;;5055828;28;20058;-76
2023/05/30 03:32:30;;;;;;;14.38;3.75;;;11.10;99.90;;;;;;5043939;28;20048;-77
2023/05/30 03:34:57;;;;;;;14.93;3.78;;;11.10;99.90;;;;;;5050392;28;20055;-77
2023/05/30 03:37:23;;;;;;;12.20;3.30;;;11.10;99.90;;;;;;5026698;28;20199;-76
2023/05/30 03:39:48;;;;;;;14.10;3.83;;;11.10;99.90;;;;;;5044964;28;20538;-76
2023/05/30 03:42:14;;;;;;;17.88;4.15;;;11.10;99.90;;;;;;5049564;28;20079;-76
2023/05/30 03:44:40;;;;;;;17.20;4.07;;;11.10;99.90;;;;;;5059055;28;20047;-76
2023/05/30 03:47:06;;;;;;;17.27;4.05;;;11.20;99.90;;;;;;5030715;28;20064;-76
2023/05/30 03:49:31;;;;;;;11.30;3.50;;;11.20;99.90;;;;;;5056594;28;20032;-76
2023/05/30 03:51:57;;;;;;;14.15;4.07;;;11.20;99.90;;;;;;5060481;28;20510;-77
2023/05/30 03:54:23;;;;;;;14.80;4.10;;;11.20;99.90;;;;;;5063695;28;20302;-77
2023/05/30 03:56:48;;;;;;;13.02;3.65;;;11.20;99.90;;;;;;5064145;28;20430;-76
2023/05/30 03:59:15;;;;;;;17.90;3.90;;;11.20;99.90;;;;;;5030279;28;20049;-77
2023/05/30 04:01:41;;;;;;;15.02;4.15;;;11.20;99.90;;;;;;5047597;28;20576;-77
2023/05/30 04:04:07;;;;;;;12.40;3.67;;;11.30;99.90;;;;;;5037417;28;20191;-77
2023/05/30 04:06:34;;;;;;;12.80;3.72;;;11.30;99.90;;;;;;5033744;28;20414;-76
2023/05/30 04:09:02;;;;;;;13.70;3.70;;;11.30;99.90;;;;;;5050393;28;20036;-77
2023/05/30 04:11:28;;;;;;;16.33;3.60;;;11.30;99.90;;;;;;5039184;28;20379;-76
2023/05/30 04:13:54;;;;;;;15.27;4.57;;;11.30;99.90;;;;;;5040856;28;20052;-76
2023/05/30 04:16:20;;;;;;;13.93;4.07;;;11.30;99.90;;;;;;5034052;28;20525;-76
2023/05/30 04:18:47;;;;;;;18.17;4.32;;;11.30;99.90;;;;;;5067398;28;20071;-77
2023/05/30 04:21:13;;;;;;;14.77;3.60;;;11.40;99.90;;;;;;5032922;28;20044;-76
2023/05/30 04:23:42;;;;;;;15.77;4.28;;;11.40;99.90;;;;;;5056966;28;20451;-76
2023/05/30 04:26:09;;;;;;;17.10;3.85;;;11.40;99.90;;;;;;5034095;28;20041;-77
2023/05/30 04:28:38;;;;;;;14.88;4.25;;;11.40;99.90;;;;;;5048151;28;20075;-77
2023/05/30 04:31:05;;;;;;;14.60;3.72;;;11.40;99.90;;;;;;5046534;28;20040;-76
2023/05/30 04:33:35;;;;;;;13.80;3.90;;;11.40;99.90;;;;;;5050511;28;20049;-76
2023/05/30 04:36:05;;;;;;;20.20;4.93;;;11.40;99.90;;;;;;5050262;28;20469;-76
2023/05/30 04:38:37;;;;;;;16.73;4.63;;;11.40;99.90;;;;;;5047586;28;20061;-76
2023/05/30 04:41:04;;;;;;;15.75;4.05;;;11.40;99.90;;;;;;5048206;28;20041;-76
2023/05/30 04:43:30;;;;;;;16.15;3.88;;;11.40;99.90;;;;;;5034358;28;20119;-77
2023/05/30 04:46:00;;;;;;;17.65;4.47;;;11.50;99.90;;;;;;5054133;28;20056;-76
2023/05/30 04:48:29;;;;;;;13.30;3.65;;;11.50;99.90;;;;;;5062893;28;20055;-76
2023/05/30 04:50:56;;;;;;;14.75;3.70;;;11.50;99.90;;;;;;5053852;28;20353;-76
2023/05/30 04:53:22;;;;;;;17.67;4.20;;;11.50;99.90;;;;;;5064149;28;21515;-76
2023/05/30 04:55:49;;;;;;;14.45;3.60;;;11.50;99.90;;;;;;5042329;28;20098;-76
2023/05/30 04:58:15;;;;;;;18.05;4.35;;;11.50;99.90;;;;;;5034482;28;20550;-76
2023/05/30 05:00:41;;;;;;;22.95;5.20;;;11.60;99.90;;;;;;5033971;28;20041;-76
2023/05/30 05:03:07;;;;;;;16.67;4.03;;;11.60;99.90;;;;;;5032363;28;20041;-76
2023/05/30 05:05:33;;;;;;;14.30;4.15;;;11.60;99.90;;;;;;5047505;28;20072;-76
2023/05/30 05:07:59;;;;;;;15.10;4.03;;;11.60;99.90;;;;;;5030782;28;20048;-76
2023/05/30 05:10:26;;;;;;;15.30;4.13;;;11.60;99.90;;;;;;5044748;28;20037;-76
2023/05/30 05:12:52;;;;;;;15.68;3.97;;;11.60;99.90;;;;;;5056422;28;20037;-76
2023/05/30 05:15:17;;;;;;;11.98;3.35;;;11.60;99.90;;;;;;5047289;28;20109;-76
2023/05/30 05:17:43;;;;;;;12.07;3.47;;;11.60;99.90;;;;;;5024238;28;20452;-76
2023/05/30 05:20:10;;;;;;;14.25;3.95;;;11.60;99.90;;;;;;5067389;28;20040;-76
2023/05/30 05:22:35;;;;;;;11.20;3.53;;;11.60;99.90;;;;;;5042256;28;20133;-76
2023/05/30 05:25:02;;;;;;;14.02;3.95;;;11.60;99.90;;;;;;5040908;28;20032;-76
2023/05/30 05:27:28;;;;;;;13.18;3.55;;;11.60;99.90;;;;;;5044735;28;20076;-76
2023/05/30 05:29:54;;;;;;;11.05;3.38;;;11.60;99.90;;;;;;5047066;28;20117;-76
2023/05/30 05:32:20;;;;;;;14.80;3.83;;;11.60;99.90;;;;;;5032911;28;20044;-76
2023/05/30 05:34:45;;;;;;;12.43;3.50;;;11.60;99.90;;;;;;5047531;28;20426;-76
2023/05/30 05:37:11;;;;;;;12.80;3.95;;;11.60;99.90;;;;;;5047430;28;20454;-76
2023/05/30 05:39:37;;;;;;;14.77;3.67;;;11.60;99.90;;;;;;5047242;28;20122;-76
2023/05/30 05:42:03;;;;;;;10.18;3.00;;;11.60;99.90;;;;;;5047369;28;20041;-76
2023/05/30 05:44:29;;;;;;;11.80;3.00;;;11.60;99.90;;;;;;5063228;28;20048;-76
2023/05/30 05:46:56;;;;;;;13.32;3.45;;;11.70;99.90;;;;;;5020425;28;20659;-76
2023/05/30 05:49:22;;;;;;;12.82;3.80;;;11.60;99.90;;;;;;5047053;28;20041;-76
2023/05/30 05:51:48;;;;;;;10.38;3.00;;;11.70;99.90;;;;;;5030980;28;20048;-76
2023/05/30 05:54:14;;;;;;;10.85;3.17;;;11.70;99.90;;;;;;5039407;28;20076;-76
2023/05/30 05:56:40;;;;;;;11.35;3.25;;;11.70;99.90;;;;;;5033250;28;20473;-76
2023/05/30 05:59:06;;;;;;;9.18;3.03;;;11.70;99.90;;;;;;5051290;28;20052;-76
2023/05/30 06:01:31;;;;;;;12.32;3.20;;;11.70;99.90;;;;;;5070731;28;20041;-76
2023/05/30 06:04:00;;;;;;;8.98;2.78;;;11.70;99.90;;;;;;5036778;28;20047;-76
2023/05/30 06:06:25;;;;;;;11.82;3.17;;;11.70;99.90;;;;;;5063432;28;20037;-76
2023/05/30 06:08:51;;;;;;;15.15;3.30;;;11.70;99.90;;;;;;5033628;28;20560;-76
2023/05/30 06:11:17;;;;;;;10.63;3.28;;;11.70;99.90;;;;;;5051282;28;20075;-76
2023/05/30 06:13:42;;;;;;;14.50;3.70;;;11.70;99.90;;;;;;5034727;28;20477;-76
2023/05/30 06:16:08;;;;;;;11.95;3.28;;;11.70;99.90;;;;;;5034313;28;20045;-76
2023/05/30 06:18:34;;;;;;;11.38;3.20;;;11.70;99.90;;;;;;5015968;28;20051;-76
2023/05/30 06:20:59;;;;;;;10.48;3.03;;;11.70;99.90;;;;;;5037630;28;20129;-76
2023/05/30 06:23:25;;;;;;;13.70;3.40;;;11.70;99.90;;;;;;5053223;28;20041;-76
2023/05/30 06:25:51;;;;;;;8.95;2.92;;;11.70;99.90;;;;;;5054182;28;20313;-76
2023/05/30 06:28:17;;;;;;;12.40;3.33;;;11.70;99.90;;;;;;5051493;28;20474;-76
2023/05/30 06:30:43;;;;;;;11.82;3.20;;;11.70;99.90;;;;;;5053676;28;20051;-76
2023/05/30 06:33:08;;;;;;;14.43;3.20;;;11.70;99.90;;;;;;5053537;28;20071;-76
2023/05/30 06:35:34;;;;;;;10.88;3.15;;;11.80;99.90;;;;;;5053627;28;20075;-76
2023/05/30 06:38:00;;;;;;;12.30;3.10;;;11.80;99.90;;;;;;5051656;28;20036;-76
2023/05/30 06:40:25;;;;;;;11.95;3.67;;;11.80;99.90;;;;;;5070041;28;20586;-76
2023/05/30 06:42:51;;;;;;;11.98;3.38;;;11.90;99.90;;;;;;5053387;28;20041;-76
2023/05/30 06:45:17;;;;;;;10.23;3.00;;;11.90;99.90;;;;;;5053296;28;20051;-76
2023/05/30 06:47:42;;;;;;;11.68;2.88;;;11.90;99.90;;;;;;5053789;28;20037;-76
2023/05/30 06:50:09;;;;;;;10.00;2.53;;;11.90;99.90;;;;;;5047040;28;20032;-76
2023/05/30 06:52:34;;;;;;;9.15;2.97;;;11.90;99.90;;;;;;5033221;28;20069;-76
2023/05/30 06:55:00;;;;;;;11.57;3.13;;;11.90;99.90;;;;;;5049292;28;20096;-76
2023/05/30 06:57:26;;;;;;;13.02;3.03;;;11.90;99.90;;;;;;5050615;28;20037;-76
2023/05/30 06:59:51;;;;;;;10.57;3.72;;;12.00;99.90;;;;;;5044603;28;20553;-76
2023/05/30 07:02:17;;;;;;;8.68;2.92;;;12.00;99.90;;;;;;5069361;28;20036;-76
2023/05/30 07:04:43;;;;;;;15.20;3.22;;;12.00;99.90;;;;;;5056967;28;20033;-76
2023/05/30 07:07:09;;;;;;;9.15;2.50;;;12.10;99.90;;;;;;5033366;28;20101;-76
2023/05/30 07:09:35;;;;;;;8.73;2.28;;;12.10;99.90;;;;;;5050613;28;20143;-76
2023/05/30 07:12:02;;;;;;;8.63;2.45;;;12.10;99.90;;;;;;5032429;28;20037;-76
2023/05/30 07:14:27;;;;;;;9.05;2.20;;;12.10;99.90;;;;;;5049106;28;20067;-76
2023/05/30 07:16:53;;;;;;;9.35;2.50;;;12.10;99.90;;;;;;5032830;28;20443;-76
2023/05/30 07:19:19;;;;;;;9.43;2.35;;;12.10;99.90;;;;;;5032811;28;20049;-76
2023/05/30 07:21:44;;;;;;;8.65;2.38;;;12.20;99.90;;;;;;5033832;28;20264;-76
2023/05/30 07:24:10;;;;;;;10.00;2.72;;;12.20;99.90;;;;;;5048692;28;20049;-76
2023/05/30 07:26:36;;;;;;;9.40;2.50;;;12.30;99.90;;;;;;5049148;28;20036;-76
2023/05/30 07:29:03;;;;;;;9.18;2.17;;;12.30;99.90;;;;;;5032350;28;20061;-76
2023/05/30 07:31:29;;;;;;;8.80;2.30;;;12.30;99.90;;;;;;5033025;28;20048;-76
2023/05/30 07:33:55;;;;;;;8.40;2.30;;;12.60;99.90;;;;;;5051338;28;20063;-76
2023/05/30 07:36:20;;;;;;;8.95;2.55;;;12.30;99.90;;;;;;5032693;28;20053;-75
2023/05/30 07:38:46;;;;;;;8.73;2.35;;;12.30;99.90;;;;;;5048652;28;20498;-76
2023/05/30 07:41:12;;;;;;;10.10;2.72;;;12.30;99.90;;;;;;5050734;28;20098;-75
2023/05/30 07:43:37;;;;;;;9.43;2.60;;;12.30;99.90;;;;;;5031972;28;20052;-76
2023/05/30 07:46:03;;;;;;;10.20;2.53;;;12.30;99.90;;;;;;5048871;28;20401;-76
2023/05/30 07:48:29;;;;;;;8.77;2.30;;;12.20;99.90;;;;;;5048485;28;20041;-76
2023/05/30 07:50:55;;;;;;;7.93;2.40;;;12.20;99.90;;;;;;5022462;28;20037;-76
2023/05/30 07:53:20;;;;;;;8.32;2.25;;;12.20;99.90;;;;;;5049027;28;20044;-75
2023/05/30 07:55:46;;;;;;;9.13;2.65;;;12.30;99.90;;;;;;5052022;28;20492;-76
2023/05/30 07:58:12;;;;;;;10.20;2.50;;;12.30;99.90;;;;;;5068153;28;20063;-75
2023/05/30 08:00:37;;;;;;;11.48;2.55;;;12.30;99.90;;;;;;5068556;28;20051;-76
2023/05/30 08:03:03;;;;;;;12.63;3.03;;;12.40;99.90;;;;;;5058582;28;20075;-76
2023/05/30 08:05:29;;;;;;;9.43;2.80;;;12.40;99.90;;;;;;5032199;28;20383;-76
2023/05/30 08:07:55;;;;;;;8.40;2.40;;;12.40;99.90;;;;;;5048489;28;20567;-76
2023/05/30 08:10:20;;;;;;;9.18;2.63;;;12.40;99.90;;;;;;5031995;28;20265;-76
2023/05/30 08:12:46;;;;;;;9.93;2.63;;;12.40;99.90;;;;;;5032604;28;20048;-76
2023/05/30 08:15:12;;;;;;;8.07;2.53;;;12.40;99.90;;;;;;5014527;28;20102;-76
2023/05/30 08:17:40;;;;;;;10.88;2.83;;;12.50;99.90;;;;;;5031817;28;20037;-76
2023/05/30 08:20:12;;;;;;;8.70;2.67;;;12.50;99.90;;;;;;5048129;28;20056;-76
2023/05/30 08:22:38;;;;;;;8.55;2.45;;;12.60;99.90;;;;;;5030829;28;20040;-76
2023/05/30 08:25:04;;;;;;;6.75;2.60;;;12.70;99.90;;;;;;5064649;28;20037;-76
2023/05/30 08:27:31;;;;;;;11.07;2.55;;;12.80;99.90;;;;;;5034913;28;20382;-76
2023/05/30 08:29:57;;;;;;;10.25;2.60;;;12.90;99.90;;;;;;5051316;28;20049;-76
2023/05/30 08:32:23;;;;;;;8.65;2.58;;;12.90;99.90;;;;;;5068236;28;20563;-76
2023/05/30 08:34:48;;;;;;;7.18;2.20;;;12.90;99.90;;;;;;5057386;28;20128;-76
2023/05/30 08:37:14;;;;;;;6.38;2.20;;;12.70;99.90;;;;;;5031387;28;20045;-76
2023/05/30 08:39:40;;;;;;;7.20;1.80;;;12.90;99.90;;;;;;5030927;28;20056;-76
2023/05/30 08:42:06;;;;;;;4.75;1.50;;;12.80;99.90;;;;;;5031684;28;20067;-76
2023/05/30 08:44:32;;;;;;;4.70;1.60;;;12.70;99.90;;;;;;5031654;28;20041;-76
2023/05/30 08:46:59;;;;;;;4.93;1.60;;;12.80;99.90;;;;;;5031528;28;20112;-76
2023/05/30 08:49:31;;;;;;;4.13;1.63;;;12.80;99.90;;;;;;5030967;28;20044;-76
2023/05/30 08:51:58;;;;;;;6.78;1.80;;;12.80;99.90;;;;;;5048165;28;20051;-76
2023/05/30 08:54:32;;;;;;;5.18;1.60;;;12.80;99.90;;;;;;5014508;28;20325;-76
2023/05/30 08:57:39;;;;;;;4.47;1.67;;;12.90;99.90;;;;;;5050827;28;20128;-76
2023/05/30 09:00:09;;;;;;;4.13;1.50;;;13.00;99.90;;;;;;5027804;28;20455;-76
2023/05/30 09:02:35;;;;;;;5.13;1.60;;;13.20;99.90;;;;;;5049168;28;20075;-76
2023/05/30 09:05:03;;;;;;;6.55;1.67;;;13.30;99.90;;;;;;5048495;28;20502;-76
2023/05/30 09:07:29;;;;;;;6.63;1.80;;;13.50;99.90;;;;;;5031796;28;20279;-76
2023/05/30 09:09:56;;;;;;;4.82;1.60;;;13.60;99.90;;;;;;5030737;28;20048;-76
2023/05/30 09:12:25;;;;;;;2.72;1.40;;;13.70;99.90;;;;;;5047899;28;20514;-76
2023/05/30 09:14:51;;;;;;;5.18;1.50;;;13.70;99.90;;;;;;5047167;28;20515;-76
2023/05/30 09:17:17;;;;;;;3.63;1.55;;;13.70;99.90;;;;;;5032211;28;20045;-76
2023/05/30 09:19:44;;;;;;;7.25;1.50;;;13.70;99.90;;;;;;5031004;28;20186;-76
2023/05/30 09:22:10;;;;;;;3.20;1.40;;;13.80;99.90;;;;;;5048219;28;20404;-76
2023/05/30 09:25:00;;;;;;;4.00;1.10;;;13.80;99.90;;;;;;5030568;28;20051;-76
2023/05/30 09:27:28;;;;;;;3.00;1.30;;;13.90;99.90;;;;;;5039658;28;20501;-76
2023/05/30 09:29:55;;;;;;;4.05;1.70;;;13.90;99.90;;;;;;5050573;28;20114;-76
2023/05/30 09:32:28;;;;;;;3.72;1.50;;;13.90;99.90;;;;;;5067740;28;20032;-76
2023/05/30 09:34:57;;;;;;;5.28;1.50;;;13.80;99.90;;;;;;5053129;28;20520;-75
2023/05/30 09:37:34;;;;;;;5.93;1.30;;;13.70;99.90;;;;;;5067638;28;20048;-76
2023/05/30 09:40:06;;;;;;;4.47;1.50;;;13.70;99.90;;;;;;5040521;28;20528;-76
2023/05/30 09:42:40;;;;;;;4.93;1.63;;;13.70;99.90;;;;;;5057686;28;20041;-75
2023/05/30 09:45:11;;;;;;;2.70;1.60;;;13.70;99.90;;;;;;5051570;28;20099;-76
2023/05/30 09:47:48;;;;;;;5.43;1.50;;;13.70;99.90;;;;;;5052705;28;20195;-75
2023/05/30 09:50:16;;;;;;;3.65;1.40;;;13.70;99.90;;;;;;5070733;28;20076;-75
2023/05/30 09:52:43;;;;;;;2.38;1.33;;;13.70;99.90;;;;;;5071203;28;20401;-75
2023/05/30 09:55:14;;;;;;;4.78;1.70;;;13.60;99.90;;;;;;5070792;28;20453;-76
2023/05/30 09:57:45;;;;;;;5.65;1.73;;;13.60;99.90;;;;;;5054945;28;20113;-76
2023/05/30 10:00:15;;;;;;;6.32;1.60;;;13.50;99.90;;;;;;5051892;28;20044;-76
2023/05/30 10:02:44;;;;;;;4.35;1.40;;;13.60;99.90;;;;;;5050317;28;20568;-76
2023/05/30 10:05:21;;;;;;;6.22;1.73;;;13.50;99.90;;;;;;5033689;28;20119;-76
2023/05/30 10:07:49;;;;;;;3.83;1.60;;;13.50;99.90;;;;;;5050907;28;20033;-76
2023/05/30 10:10:16;;;;;;;5.18;1.60;;;13.50;99.90;;;;;;5050634;28;20063;-76
2023/05/30 10:12:53;;;;;;;3.95;1.65;;;13.40;99.90;;;;;;5052460;28;20044;-76
2023/05/30 10:15:23;;;;;;;5.57;1.83;;;13.70;99.90;;;;;;5033575;28;20112;-76
2023/05/30 10:18:08;;;;;;;4.20;1.60;;;13.80;99.90;;;;;;5039390;28;20037;-76
2023/05/30 10:20:44;;;;;;;4.60;1.40;;;14.00;99.90;;;;;;5054650;28;20470;-76
2023/05/30 10:23:12;;;;;;;4.10;1.52;;;14.10;99.90;;;;;;5050687;28;20080;-76
2023/05/30 10:25:46;;;;;;;4.10;1.33;;;14.20;99.90;;;;;;5050254;28;20037;-76
2023/05/30 10:28:18;;;;;;;3.50;1.42;;;14.10;99.90;;;;;;5050039;28;20129;-76
2023/05/30 10:30:46;;;;;;;4.30;1.48;;;14.10;99.90;;;;;;5050341;28;20041;-75
2023/05/30 10:33:14;;;;;;;3.78;1.42;;;14.00;99.90;;;;;;5050377;28;20131;-76
2023/05/30 10:35:42;;;;;;;5.88;1.63;;;14.00;99.90;;;;;;5051035;28;20041;-75
2023/05/30 10:38:13;;;;;;;4.65;1.65;;;13.90;99.90;;;;;;5056399;28;20136;-76
2023/05/30 10:40:44;;;;;;;4.13;1.30;;;13.90;99.90;;;;;;5070045;28;20044;-76
2023/05/30 10:43:35;;;;;;;4.72;1.50;;;13.80;99.90;;;;;;5070321;28;20068;-76
2023/05/30 10:46:07;;;;;;;7.60;1.60;;;13.80;99.90;;;;;;5069191;28;20529;-76
2023/05/30 10:48:52;;;;;;;3.35;1.40;;;13.80;99.90;;;;;;5068655;28;20036;-76
2023/05/30 10:51:18;;;;;;;3.22;1.42;;;13.80;99.90;;;;;;5034446;28;20048;-76
2023/05/30 10:53:46;;;;;;;5.50;1.70;;;13.80;99.90;;;;;;5049945;28;20053;-76
2023/05/30 10:56:41;;;;;;;3.78;1.30;;;13.90;99.90;;;;;;5033470;28;20036;-76
2023/05/30 10:59:15;;;;;;;2.53;1.20;;;14.10;99.90;;;;;;5033019;28;20044;-76
2023/05/30 11:01:41;;;;;;;3.75;1.40;;;14.10;99.90;;;;;;5053835;28;20097;-76
2023/05/30 11:04:11;;;;;;;3.45;1.48;;;14.20;99.90;;;;;;5066758;28;20044;-76
2023/05/30 11:06:46;;;;;;;3.13;1.42;;;14.30;99.90;;;;;;5053080;28;20051;-75
2023/05/30 11:09:14;;;;;;;2.53;1.35;;;14.40;99.90;;;;;;5069379;28;20090;-76
2023/05/30 11:11:41;;;;;;;2.28;1.20;;;14.40;99.90;;;;;;5053446;28;20044;-76
2023/05/30 11:14:08;;;;;;;2.45;1.30;;;14.30;99.90;;;;;;5066086;28;20039;-76
2023/05/30 11:16:54;;;;;;;3.38;1.42;;;14.20;99.90;;;;;;5024392;28;20048;-76
2023/05/30 11:19:48;;;;;;;5.22;1.70;;;14.20;99.90;;;;;;5034525;28;20048;-76
2023/05/30 11:22:17;;;;;;;3.88;1.55;;;14.30;99.90;;;;;;5033148;28;20354;-76
2023/05/30 11:24:44;;;;;;;4.00;1.67;;;14.30;99.90;;;;;;5048893;28;20049;-76
2023/05/30 11:27:19;;;;;;;4.32;1.60;;;14.40;99.90;;;;;;5040174;28;20039;-76
2023/05/30 11:29:57;;;;;;;4.80;1.92;;;14.50;99.90;;;;;;5068715;28;20477;-75
2023/05/30 11:32:28;;;;;;;4.88;1.67;;;14.60;99.90;;;;;;5069500;28;20040;-76
2023/05/30 11:35:01;;;;;;;4.93;1.70;;;14.70;99.90;;;;;;5052008;28;20325;-76
2023/05/30 11:37:32;;;;;;;7.10;1.90;;;14.60;99.90;;;;;;5068982;28;20115;-75
2023/05/30 11:39:58;;;;;;;4.32;1.52;;;14.60;99.90;;;;;;5030687;28;20033;-76
2023/05/30 11:42:29;;;;;;;2.97;1.42;;;14.60;99.90;;;;;;5049486;28;20557;-76
2023/05/30 11:44:55;;;;;;;4.35;1.65;;;14.50;99.90;;;;;;5051863;28;20556;-76
2023/05/30 11:47:22;;;;;;;3.65;1.60;;;14.40;99.90;;;;;;5068688;28;20047;-76
2023/05/30 11:49:48;;;;;;;7.45;1.83;;;14.30;99.90;;;;;;5050878;28;20516;-76
2023/05/30 11:52:14;;;;;;;4.90;1.80;;;14.20;99.90;;;;;;5052226;28;20101;-76
2023/05/30 11:54:40;;;;;;;5.50;1.90;;;14.20;99.90;;;;;;5035126;28;20096;-75
2023/05/30 11:57:07;;;;;;;6.22;2.05;;;14.10;99.90;;;;;;5051936;28;20041;-76
2023/05/30 11:59:33;;;;;;;7.53;2.03;;;14.00;99.90;;;;;;5051003;28;20044;-76
2023/05/30 12:02:00;;;;;;;5.32;1.92;;;14.00;99.90;;;;;;5035658;28;20063;-75
2023/05/30 12:04:30;;;;;;;4.63;1.90;;;14.00;99.90;;;;;;5043371;28;20544;-76
2023/05/30 12:07:04;;;;;;;4.75;1.83;;;14.10;99.90;;;;;;5048993;28;20037;-76
2023/05/30 12:09:37;;;;;;;4.03;1.73;;;14.20;99.90;;;;;;5020535;28;20163;-75
2023/05/30 12:12:03;;;;;;;5.13;1.80;;;14.20;99.90;;;;;;5038749;28;20213;-76
2023/05/30 12:14:50;;;;;;;5.07;1.88;;;14.30;99.90;;;;;;5047934;28;20511;-76
2023/05/30 12:17:21;;;;;;;3.25;1.52;;;14.40;99.90;;;;;;5046983;28;20124;-76
2023/05/30 12:19:59;;;;;;;5.68;1.75;;;14.50;99.90;;;;;;5047782;28;20056;-75
2023/05/30 12:22:27;;;;;;;4.43;1.60;;;14.70;99.90;;;;;;5049190;28;20037;-75
2023/05/30 12:24:53;;;;;;;4.03;1.52;;;14.80;99.90;;;;;;5031231;28;20120;-76
2023/05/30 12:27:22;;;;;;;3.85;1.50;;;14.80;99.90;;;;;;5015099;28;20112;-76
2023/05/30 12:29:48;;;;;;;4.32;1.50;;;14.70;99.90;;;;;;5047937;28;20151;-76
2023/05/30 12:32:25;;;;;;;3.78;1.50;;;14.60;99.90;;;;;;5015352;28;20460;-76
2023/05/30 12:34:53;;;;;;;5.97;1.70;;;14.60;99.90;;;;;;5048452;28;20284;-76
2023/05/30 12:37:19;;;;;;;7.30;1.92;;;14.50;99.90;;;;;;5048157;28;20041;-76
2023/05/30 12:39:46;;;;;;;5.75;1.83;;;14.50;99.90;;;;;;5031189;28;20055;-76
2023/05/30 12:42:13;;;;;;;5.43;2.00;;;14.50;99.90;;;;;;5031562;28;20102;-75
2023/05/30 12:44:49;;;;;;;6.97;2.10;;;14.50;99.90;;;;;;5047647;28;20091;-75
2023/05/30 12:47:16;;;;;;;5.30;1.90;;;14.60;99.90;;;;;;5049845;28;20087;-76